Time;durP1;ratioP1;P1;durP2;ratioP2;P2;SDS_P1;SDS_P2;PMS_P1;PMS_P2;Temp;Humidity;BMP_temperature;BMP_pressure;BME280_temperature;BME280_humidity;BME280_pressure;Samples;Min_cycle;Max_cycle;Signal;HPM_P1;HPM_P2
2021/09/26 00:00:37;;;;;;;9.10;7.20;;;17.60;98.30;;;;;;4172909;28;20453;-83
2021/09/26 00:02:41;;;;;;;6.90;6.20;;;17.60;98.30;;;;;;4167412;28;20465;-82
2021/09/26 00:04:44;;;;;;;7.80;7.10;;;17.60;98.30;;;;;;4165922;28;20485;-82
2021/09/26 00:06:47;;;;;;;7.47;6.17;;;17.60;98.30;;;;;;4165754;28;20567;-83
2021/09/26 00:08:50;;;;;;;6.67;6.07;;;17.60;98.30;;;;;;4165900;28;20464;-82
2021/09/26 00:10:54;;;;;;;10.23;6.40;;;17.50;98.30;;;;;;4165590;28;20480;-83
2021/09/26 00:12:57;;;;;;;7.63;6.90;;;17.60;98.30;;;;;;4165679;28;20880;-82
2021/09/26 00:15:00;;;;;;;7.70;6.87;;;17.60;98.30;;;;;;4165635;28;20476;-82
2021/09/26 00:17:04;;;;;;;8.27;6.97;;;17.50;98.30;;;;;;4164759;28;20499;-82
2021/09/26 00:19:07;;;;;;;8.07;7.00;;;17.50;98.30;;;;;;4165916;28;20479;-82
2021/09/26 00:21:09;;;;;;;9.20;7.03;;;17.60;98.30;;;;;;4174073;28;20867;-82
2021/09/26 00:23:12;;;;;;;8.37;6.53;;;17.50;98.30;;;;;;4165547;28;20469;-82
2021/09/26 00:25:19;;;;;;;7.07;6.37;;;17.40;98.30;;;;;;4163468;28;20476;-82
2021/09/26 00:27:23;;;;;;;13.03;6.97;;;17.40;98.30;;;;;;4165412;28;20488;-82
2021/09/26 00:29:26;;;;;;;7.17;6.50;;;17.40;98.30;;;;;;4165179;28;20469;-82
2021/09/26 00:31:29;;;;;;;7.67;6.97;;;17.40;98.30;;;;;;4164103;28;20469;-85
2021/09/26 00:33:33;;;;;;;8.43;7.17;;;17.30;98.30;;;;;;4166033;28;20468;-85
2021/09/26 00:35:35;;;;;;;8.47;6.90;;;17.30;98.30;;;;;;4165543;28;20473;-83
2021/09/26 00:37:39;;;;;;;7.70;6.87;;;17.30;98.30;;;;;;4164754;28;20465;-83
2021/09/26 00:39:42;;;;;;;8.00;7.07;;;17.20;98.30;;;;;;4151783;28;20866;-83
2021/09/26 00:41:45;;;;;;;8.57;6.97;;;17.20;98.30;;;;;;4158076;28;20465;-82
2021/09/26 00:43:49;;;;;;;9.13;7.50;;;17.20;98.30;;;;;;4158711;28;20942;-82
2021/09/26 00:45:52;;;;;;;8.47;7.50;;;17.20;98.30;;;;;;4165218;28;20473;-82
2021/09/26 00:47:55;;;;;;;8.70;7.80;;;17.20;98.30;;;;;;4164742;28;20522;-82
2021/09/26 00:49:58;;;;;;;10.53;7.90;;;17.10;98.30;;;;;;4164587;28;20473;-82
2021/09/26 00:52:01;;;;;;;8.37;7.43;;;17.20;98.30;;;;;;4164426;28;20473;-82
2021/09/26 00:54:05;;;;;;;7.70;7.10;;;17.10;98.30;;;;;;4169468;28;20467;-82
2021/09/26 00:56:08;;;;;;;7.60;6.87;;;17.00;98.30;;;;;;4168487;28;20547;-83
2021/09/26 00:58:11;;;;;;;9.07;7.07;;;17.00;98.30;;;;;;4164845;28;20526;-82
2021/09/26 01:00:18;;;;;;;6.40;5.80;;;17.00;98.30;;;;;;4164876;28;20465;-82
2021/09/26 01:02:21;;;;;;;9.27;6.70;;;17.00;98.30;;;;;;4164560;28;20469;-82
2021/09/26 01:04:26;;;;;;;6.80;6.00;;;17.00;98.30;;;;;;4164284;28;21053;-82
2021/09/26 01:06:40;;;;;;;7.60;6.50;;;17.00;98.30;;;;;;4164149;28;20499;-82
2021/09/26 01:08:53;;;;;;;6.80;6.10;;;17.10;98.30;;;;;;4150630;28;20484;-83
2021/09/26 01:11:01;;;;;;;6.97;6.27;;;17.00;98.30;;;;;;4165835;28;20475;-84
2021/09/26 01:13:15;;;;;;;6.90;6.17;;;17.00;98.30;;;;;;4166327;28;20479;-83
2021/09/26 01:15:30;;;;;;;9.90;8.90;;;16.90;98.30;;;;;;4165094;28;20469;-85
2021/09/26 01:17:39;;;;;;;9.00;6.37;;;16.90;98.30;;;;;;4164412;28;20539;-83
2021/09/26 01:20:08;;;;;;;6.87;6.27;;;16.80;98.30;;;;;;4159672;28;20980;-83
2021/09/26 01:22:16;;;;;;;8.00;6.40;;;16.90;98.30;;;;;;4164135;28;20471;-85
2021/09/26 01:24:55;;;;;;;7.97;6.63;;;16.90;98.30;;;;;;4164625;28;20474;-84
2021/09/26 01:27:30;;;;;;;10.40;7.07;;;16.90;98.30;;;;;;4147685;28;20489;-84
2021/09/26 01:30:11;;;;;;;7.80;6.67;;;16.90;98.30;;;;;;4167214;28;20460;-84
2021/09/26 01:32:17;;;;;;;7.50;6.70;;;16.90;98.30;;;;;;4142672;28;20469;-84
2021/09/26 01:34:24;;;;;;;7.17;6.47;;;16.90;98.30;;;;;;4164084;28;20891;-84
2021/09/26 01:36:32;;;;;;;7.07;6.37;;;16.90;98.30;;;;;;4163747;28;20933;-84
2021/09/26 01:38:40;;;;;;;6.50;5.90;;;16.90;98.30;;;;;;4156537;28;20460;-83
2021/09/26 01:40:50;;;;;;;8.73;5.83;;;16.90;98.30;;;;;;4164497;28;20464;-84
2021/09/26 01:42:58;;;;;;;7.37;6.67;;;16.80;98.30;;;;;;4158790;28;20468;-84
2021/09/26 01:45:06;;;;;;;7.27;6.30;;;16.80;98.30;;;;;;4166603;28;20522;-84
2021/09/26 01:47:12;;;;;;;6.97;6.37;;;16.80;98.30;;;;;;4167045;28;20507;-83
2021/09/26 01:49:22;;;;;;;7.37;6.57;;;16.90;98.30;;;;;;4166860;28;21061;-84
2021/09/26 01:51:26;;;;;;;7.23;6.50;;;16.90;98.30;;;;;;4164926;28;20481;-84
2021/09/26 01:53:30;;;;;;;8.20;6.67;;;16.80;98.30;;;;;;4164655;28;20968;-85
2021/09/26 01:55:34;;;;;;;8.53;7.73;;;16.80;98.30;;;;;;4164339;28;20987;-83
2021/09/26 01:57:40;;;;;;;8.13;6.60;;;16.70;98.30;;;;;;4157149;28;20473;-83
2021/09/26 01:59:43;;;;;;;9.20;8.40;;;16.70;98.30;;;;;;4172904;28;20456;-83
2021/09/26 02:01:46;;;;;;;7.63;6.93;;;16.70;98.30;;;;;;4163876;28;20459;-83
2021/09/26 02:03:50;;;;;;;7.60;6.80;;;16.60;98.30;;;;;;4158382;28;20476;-83
2021/09/26 02:05:54;;;;;;;7.50;6.57;;;16.50;98.30;;;;;;4163757;28;20551;-83
2021/09/26 02:08:00;;;;;;;6.93;6.30;;;16.60;98.30;;;;;;4163654;28;20497;-83
2021/09/26 02:10:05;;;;;;;9.20;6.67;;;16.60;98.30;;;;;;4164130;28;20465;-83
2021/09/26 02:12:09;;;;;;;5.97;5.37;;;16.60;98.30;;;;;;4163419;28;20523;-84
2021/09/26 02:14:13;;;;;;;8.67;7.00;;;16.50;98.30;;;;;;4164629;28;20534;-83
2021/09/26 02:16:16;;;;;;;7.93;6.67;;;16.50;98.30;;;;;;4167329;28;20531;-83
2021/09/26 02:18:21;;;;;;;6.17;5.57;;;16.60;98.30;;;;;;4164470;28;20480;-83
2021/09/26 02:20:24;;;;;;;7.97;6.00;;;16.60;98.30;;;;;;4163889;28;20465;-84
2021/09/26 02:22:30;;;;;;;6.87;6.10;;;16.60;98.30;;;;;;4165010;28;20503;-83
2021/09/26 02:24:34;;;;;;;6.33;5.40;;;16.60;98.30;;;;;;4164401;28;20491;-83
2021/09/26 02:26:37;;;;;;;5.63;5.10;;;16.70;98.30;;;;;;4164094;28;21280;-83
2021/09/26 02:28:41;;;;;;;6.17;5.57;;;16.70;98.30;;;;;;4163356;28;20579;-83
2021/09/26 02:30:43;;;;;;;6.33;5.70;;;16.70;98.30;;;;;;4164224;28;20473;-83
2021/09/26 02:32:47;;;;;;;6.00;5.23;;;16.70;98.30;;;;;;4162742;28;20511;-83
2021/09/26 02:34:50;;;;;;;7.53;6.40;;;16.70;98.30;;;;;;4157480;28;20468;-84
2021/09/26 02:36:53;;;;;;;6.07;5.07;;;16.80;98.30;;;;;;4162931;28;20485;-83
2021/09/26 02:38:57;;;;;;;7.03;5.87;;;16.70;98.30;;;;;;4172511;28;20465;-83
2021/09/26 02:41:05;;;;;;;5.57;5.07;;;16.80;98.30;;;;;;4166156;28;20468;-84
2021/09/26 02:43:19;;;;;;;9.03;5.60;;;16.80;98.30;;;;;;4162735;28;20463;-83
2021/09/26 02:45:27;;;;;;;5.80;5.20;;;16.80;98.30;;;;;;4166704;28;20473;-84
2021/09/26 02:47:38;;;;;;;5.90;5.30;;;16.70;98.30;;;;;;4166254;28;20487;-83
2021/09/26 02:49:42;;;;;;;5.67;5.17;;;16.70;98.30;;;;;;4159217;28;21071;-83
2021/09/26 02:51:45;;;;;;;5.60;5.10;;;16.80;98.30;;;;;;4166249;28;20472;-84
2021/09/26 02:53:50;;;;;;;6.90;5.30;;;16.90;98.30;;;;;;4166635;28;20833;-83
2021/09/26 02:55:57;;;;;;;5.60;5.10;;;16.90;98.30;;;;;;4166403;28;20469;-83
2021/09/26 02:58:00;;;;;;;5.83;5.23;;;16.80;98.30;;;;;;4166029;28;20485;-83
2021/09/26 03:00:04;;;;;;;6.73;5.30;;;16.80;98.30;;;;;;4166287;28;20457;-83
2021/09/26 03:02:08;;;;;;;8.10;5.60;;;16.80;98.30;;;;;;4165496;28;20495;-84
2021/09/26 03:04:11;;;;;;;6.27;5.67;;;16.80;98.30;;;;;;4165976;28;20556;-84
2021/09/26 03:06:14;;;;;;;5.70;5.00;;;16.80;98.30;;;;;;4165903;28;20508;-83
2021/09/26 03:08:18;;;;;;;6.17;5.17;;;16.80;98.30;;;;;;4165695;28;20465;-83
2021/09/26 03:10:21;;;;;;;6.30;5.70;;;16.70;98.30;;;;;;4166056;28;21008;-83
2021/09/26 03:12:26;;;;;;;7.50;6.50;;;16.70;98.30;;;;;;4165269;28;20503;-84
2021/09/26 03:14:43;;;;;;;6.47;5.87;;;16.70;98.30;;;;;;4165858;28;20869;-84
2021/09/26 03:16:46;;;;;;;8.50;5.80;;;16.60;98.30;;;;;;4164581;28;20487;-84
2021/09/26 03:18:49;;;;;;;6.17;5.23;;;16.60;98.30;;;;;;4165991;28;20552;-83
2021/09/26 03:20:52;;;;;;;6.93;6.27;;;16.60;98.30;;;;;;4165558;28;20472;-85
2021/09/26 03:22:55;;;;;;;6.70;6.00;;;16.60;98.30;;;;;;4165672;28;20475;-84
2021/09/26 03:24:58;;;;;;;7.27;6.57;;;16.70;98.30;;;;;;4165863;28;20457;-84
2021/09/26 03:27:03;;;;;;;9.10;6.40;;;16.60;98.30;;;;;;4165851;28;20880;-84
2021/09/26 03:29:07;;;;;;;8.17;6.80;;;16.70;98.30;;;;;;4165648;28;20843;-84
2021/09/26 03:31:10;;;;;;;7.40;6.70;;;16.70;98.30;;;;;;4165858;28;20472;-84
2021/09/26 03:33:13;;;;;;;6.87;6.27;;;16.60;98.30;;;;;;4165335;28;20518;-84
2021/09/26 03:35:16;;;;;;;6.70;6.00;;;16.60;98.30;;;;;;4166250;28;20806;-85
2021/09/26 03:37:19;;;;;;;8.37;6.73;;;16.60;98.30;;;;;;4165647;28;20481;-84
2021/09/26 03:39:22;;;;;;;7.90;6.90;;;16.60;98.30;;;;;;4165644;28;20464;-84
2021/09/26 03:41:25;;;;;;;7.17;6.27;;;16.60;98.30;;;;;;4165398;28;20477;-84
2021/09/26 03:43:28;;;;;;;7.43;6.70;;;16.60;98.30;;;;;;4165472;28;20950;-84
2021/09/26 03:45:32;;;;;;;8.20;7.40;;;16.60;98.30;;;;;;4165014;28;20497;-85
2021/09/26 03:47:36;;;;;;;9.80;7.30;;;16.60;98.30;;;;;;4164761;28;20489;-84
2021/09/26 03:49:38;;;;;;;7.77;7.10;;;16.60;98.30;;;;;;4164633;28;20481;-84
2021/09/26 03:51:42;;;;;;;8.27;7.17;;;16.50;98.30;;;;;;4164151;28;20496;-84
2021/09/26 03:53:45;;;;;;;7.77;7.07;;;16.50;98.30;;;;;;4164942;28;20472;-84
2021/09/26 03:55:48;;;;;;;20.53;9.33;;;16.50;98.30;;;;;;4164877;28;20461;-84
2021/09/26 03:57:51;;;;;;;8.30;7.40;;;16.50;98.30;;;;;;4164610;28;20564;-83
2021/09/26 03:59:54;;;;;;;12.23;7.23;;;16.40;98.30;;;;;;4165973;28;20465;-83
2021/09/26 04:01:58;;;;;;;9.67;7.70;;;16.40;98.30;;;;;;4164371;28;20946;-83
2021/09/26 04:04:01;;;;;;;12.93;7.40;;;16.50;98.30;;;;;;4164121;28;20472;-82
2021/09/26 04:06:07;;;;;;;16.90;8.17;;;16.40;98.30;;;;;;4164493;28;20559;-82
2021/09/26 04:08:10;;;;;;;9.47;7.60;;;16.50;98.30;;;;;;4164987;28;20452;-83
2021/09/26 04:10:13;;;;;;;11.70;8.17;;;16.40;98.30;;;;;;4167675;28;20516;-83
2021/09/26 04:12:16;;;;;;;10.80;7.90;;;16.50;98.30;;;;;;4178934;28;20464;-82
2021/09/26 04:14:19;;;;;;;9.93;8.93;;;16.50;98.30;;;;;;4179077;28;20456;-82
2021/09/26 04:16:22;;;;;;;10.00;7.90;;;16.50;98.30;;;;;;4178751;28;20491;-83
2021/09/26 04:18:26;;;;;;;11.73;8.53;;;16.60;98.30;;;;;;4179990;28;20458;-83
2021/09/26 04:20:29;;;;;;;11.10;8.57;;;16.50;98.30;;;;;;4180940;28;20528;-83
2021/09/26 04:22:32;;;;;;;8.60;7.80;;;16.50;98.30;;;;;;4176124;28;20471;-83
2021/09/26 04:24:35;;;;;;;9.37;8.47;;;16.50;98.30;;;;;;4177551;28;20464;-83
2021/09/26 04:26:38;;;;;;;13.10;8.63;;;16.50;98.30;;;;;;4169427;28;20481;-83
2021/09/26 04:28:41;;;;;;;8.67;7.87;;;16.50;98.30;;;;;;4169046;28;20882;-83
2021/09/26 04:30:44;;;;;;;12.67;8.73;;;16.50;98.30;;;;;;4170139;28;20542;-82
2021/09/26 04:32:47;;;;;;;9.80;8.80;;;16.50;98.30;;;;;;4170128;28;20499;-83
2021/09/26 04:34:51;;;;;;;11.00;9.00;;;16.50;98.30;;;;;;4169453;28;20461;-82
2021/09/26 04:36:54;;;;;;;9.33;8.47;;;16.50;98.30;;;;;;4169784;28;20888;-82
2021/09/26 04:38:57;;;;;;;9.33;8.40;;;16.50;98.30;;;;;;4169957;28;20842;-82
2021/09/26 04:41:01;;;;;;;13.33;8.90;;;16.40;98.30;;;;;;4169833;28;20457;-82
2021/09/26 04:43:03;;;;;;;17.07;8.90;;;16.40;98.30;;;;;;4170166;28;20457;-82
2021/09/26 04:45:08;;;;;;;17.67;10.67;;;16.50;98.30;;;;;;4159163;28;20480;-83
2021/09/26 04:47:11;;;;;;;14.33;9.50;;;16.40;98.30;;;;;;4169884;28;20974;-82
2021/09/26 04:49:14;;;;;;;10.53;9.43;;;16.40;98.30;;;;;;4169855;28;20511;-82
2021/09/26 04:51:18;;;;;;;13.83;10.90;;;16.40;98.30;;;;;;4169270;28;20493;-82
2021/09/26 04:53:21;;;;;;;12.13;9.80;;;16.50;98.30;;;;;;4169064;28;20473;-82
2021/09/26 04:55:26;;;;;;;12.00;9.17;;;16.40;98.30;;;;;;4169321;28;20465;-83
2021/09/26 04:57:29;;;;;;;10.43;9.43;;;16.50;98.30;;;;;;4169584;28;20481;-82
2021/09/26 04:59:32;;;;;;;11.17;9.30;;;16.40;98.30;;;;;;4168899;28;20865;-82
2021/09/26 05:01:35;;;;;;;12.50;9.60;;;16.50;98.30;;;;;;4167921;28;20457;-83
2021/09/26 05:03:38;;;;;;;10.73;9.20;;;16.50;98.30;;;;;;4167730;28;20477;-82
2021/09/26 05:05:41;;;;;;;13.77;9.60;;;16.50;98.30;;;;;;4169117;28;20475;-82
2021/09/26 05:07:46;;;;;;;12.47;9.80;;;16.50;98.30;;;;;;4169075;28;20468;-83
2021/09/26 05:09:48;;;;;;;15.30;10.33;;;16.50;98.30;;;;;;4168337;28;20457;-83
2021/09/26 05:11:52;;;;;;;12.93;10.47;;;16.50;98.30;;;;;;4168322;28;20516;-83
2021/09/26 05:13:55;;;;;;;12.90;10.90;;;16.60;98.30;;;;;;4168320;28;20469;-82
2021/09/26 05:15:58;;;;;;;14.53;10.97;;;16.60;98.30;;;;;;4168681;28;20489;-82
2021/09/26 05:18:01;;;;;;;13.07;10.60;;;16.60;98.30;;;;;;4168230;28;20946;-82
2021/09/26 05:20:08;;;;;;;14.73;10.90;;;16.60;98.30;;;;;;4168050;28;20461;-82
2021/09/26 05:22:11;;;;;;;12.13;10.17;;;16.60;98.30;;;;;;4155850;28;20472;-82
2021/09/26 05:24:15;;;;;;;11.73;10.53;;;16.70;98.30;;;;;;4167910;28;20468;-82
2021/09/26 05:26:18;;;;;;;13.87;10.13;;;16.70;98.30;;;;;;4166158;28;21266;-82
2021/09/26 05:28:21;;;;;;;13.93;10.70;;;16.70;98.30;;;;;;4169226;28;20468;-82
2021/09/26 05:30:24;;;;;;;15.93;10.17;;;16.60;98.30;;;;;;4167933;28;20578;-82
2021/09/26 05:32:27;;;;;;;12.70;10.67;;;16.70;98.30;;;;;;4166567;28;20468;-82
2021/09/26 05:34:30;;;;;;;12.30;11.00;;;16.60;98.30;;;;;;4166499;28;20496;-82
2021/09/26 05:36:33;;;;;;;11.40;10.23;;;16.60;98.30;;;;;;4166834;28;20488;-82
2021/09/26 05:38:36;;;;;;;12.63;9.93;;;16.70;98.30;;;;;;4164574;28;20465;-82
2021/09/26 05:40:40;;;;;;;12.50;11.30;;;16.60;98.30;;;;;;4168874;28;20978;-82
2021/09/26 05:42:43;;;;;;;13.03;10.27;;;16.70;98.30;;;;;;4167215;28;20480;-82
2021/09/26 05:44:48;;;;;;;12.20;11.00;;;16.70;98.30;;;;;;4167157;28;20461;-82
2021/09/26 05:46:51;;;;;;;11.77;10.47;;;16.80;98.30;;;;;;4166919;28;20818;-82
2021/09/26 05:48:54;;;;;;;11.13;10.03;;;16.70;98.30;;;;;;4167383;28;20560;-82
2021/09/26 05:50:59;;;;;;;12.33;10.87;;;16.70;98.30;;;;;;4167753;28;20493;-82
2021/09/26 05:53:02;;;;;;;13.67;11.03;;;16.70;98.30;;;;;;4165247;28;20469;-82
2021/09/26 05:55:09;;;;;;;13.10;11.50;;;16.70;98.30;;;;;;4165514;28;20496;-82
2021/09/26 05:57:14;;;;;;;13.30;11.37;;;16.80;98.30;;;;;;4173540;28;20885;-83
2021/09/26 05:59:17;;;;;;;13.30;11.37;;;16.80;98.30;;;;;;4169696;28;20539;-82
2021/09/26 06:01:20;;;;;;;14.33;11.60;;;16.90;98.30;;;;;;4164030;28;20465;-83
2021/09/26 06:03:23;;;;;;;12.53;10.83;;;17.00;98.30;;;;;;4163433;28;20526;-84
2021/09/26 06:05:30;;;;;;;15.47;12.33;;;16.90;98.30;;;;;;4163360;28;20488;-84
2021/09/26 06:07:36;;;;;;;13.90;11.73;;;16.90;98.30;;;;;;4154988;28;21195;-84
2021/09/26 06:09:39;;;;;;;11.43;10.33;;;16.90;98.30;;;;;;4160390;28;20466;-84
2021/09/26 06:11:42;;;;;;;12.90;11.60;;;17.00;98.30;;;;;;4162405;28;20524;-84
2021/09/26 06:13:46;;;;;;;11.00;9.90;;;17.00;98.30;;;;;;4170681;28;21000;-83
2021/09/26 06:15:49;;;;;;;12.37;11.07;;;17.00;98.30;;;;;;4162489;28;20500;-84
2021/09/26 06:17:54;;;;;;;11.70;10.67;;;17.00;98.30;;;;;;4162292;28;20471;-84
2021/09/26 06:19:57;;;;;;;16.43;11.47;;;17.00;98.30;;;;;;4160972;28;20684;-84
2021/09/26 06:22:01;;;;;;;12.93;10.77;;;17.00;98.30;;;;;;4162929;28;20695;-84
2021/09/26 06:24:04;;;;;;;12.30;11.00;;;17.00;98.30;;;;;;4163011;28;20464;-84
2021/09/26 06:26:07;;;;;;;15.33;11.93;;;17.00;98.30;;;;;;4162763;28;20499;-84
2021/09/26 06:28:11;;;;;;;12.93;11.53;;;17.00;98.30;;;;;;4162732;28;20479;-84
2021/09/26 06:30:15;;;;;;;12.33;11.07;;;17.00;98.30;;;;;;4162969;28;20869;-85
2021/09/26 06:32:24;;;;;;;13.10;11.70;;;17.00;98.30;;;;;;4162325;28;20518;-85
2021/09/26 06:34:27;;;;;;;12.53;11.23;;;17.10;98.30;;;;;;4163310;28;20472;-85
2021/09/26 06:36:30;;;;;;;12.63;11.37;;;17.10;98.30;;;;;;4162856;28;20523;-85
2021/09/26 06:38:36;;;;;;;12.60;11.30;;;17.10;98.30;;;;;;4170742;28;20483;-85
2021/09/26 06:40:41;;;;;;;13.33;12.03;;;17.10;98.30;;;;;;4155752;28;20475;-84
2021/09/26 06:42:45;;;;;;;14.30;12.10;;;17.10;98.30;;;;;;4162773;28;20487;-86
2021/09/26 06:44:48;;;;;;;12.73;11.13;;;17.10;98.30;;;;;;4162889;28;20477;-85
2021/09/26 06:46:53;;;;;;;15.13;12.50;;;17.20;98.30;;;;;;4162564;28;20890;-85
2021/09/26 06:48:56;;;;;;;12.10;10.87;;;17.20;98.30;;;;;;4162337;28;20461;-84
2021/09/26 06:51:02;;;;;;;12.40;11.20;;;17.30;98.30;;;;;;4163387;28;20481;-84
2021/09/26 06:53:05;;;;;;;12.53;11.27;;;17.20;98.30;;;;;;4163980;28;20608;-84
2021/09/26 06:55:09;;;;;;;16.17;11.03;;;17.30;98.30;;;;;;4164145;28;20492;-84
2021/09/26 06:57:12;;;;;;;13.27;11.80;;;17.40;98.30;;;;;;4164005;28;20503;-85
2021/09/26 06:59:18;;;;;;;11.73;10.70;;;17.60;98.30;;;;;;4164284;28;20568;-84
2021/09/26 07:01:21;;;;;;;13.23;11.73;;;17.60;98.30;;;;;;4164005;28;20462;-85
2021/09/26 07:03:25;;;;;;;13.23;11.87;;;17.70;98.30;;;;;;4164597;28;20473;-85
2021/09/26 07:05:29;;;;;;;16.73;12.47;;;17.80;98.30;;;;;;4161950;28;20473;-85
2021/09/26 07:07:35;;;;;;;14.30;12.00;;;18.00;98.30;;;;;;4158824;28;20543;-84
2021/09/26 07:09:39;;;;;;;11.13;9.97;;;18.10;98.30;;;;;;4156920;28;20854;-84
2021/09/26 07:11:42;;;;;;;12.73;11.27;;;18.10;98.30;;;;;;4163953;28;20488;-85
2021/09/26 07:13:47;;;;;;;12.20;10.93;;;18.00;98.30;;;;;;4164937;28;20465;-84
2021/09/26 07:15:50;;;;;;;13.07;11.63;;;18.00;98.30;;;;;;4163224;28;20515;-84
2021/09/26 07:17:56;;;;;;;11.60;10.40;;;18.10;98.30;;;;;;4169216;28;20472;-85
2021/09/26 07:20:01;;;;;;;11.90;10.70;;;18.30;98.30;;;;;;4165167;28;20473;-84
2021/09/26 07:22:05;;;;;;;13.27;11.93;;;18.50;98.30;;;;;;4175816;28;20474;-86
2021/09/26 07:24:08;;;;;;;11.63;10.40;;;18.60;98.30;;;;;;4166663;28;20488;-84
2021/09/26 07:26:13;;;;;;;11.93;10.50;;;18.80;98.30;;;;;;4166846;28;20998;-84
2021/09/26 07:28:16;;;;;;;11.33;10.13;;;18.80;98.30;;;;;;4165227;28;20496;-85
2021/09/26 07:30:19;;;;;;;12.50;10.70;;;19.00;98.30;;;;;;4171567;28;20499;-85
2021/09/26 07:32:23;;;;;;;10.20;9.30;;;19.20;98.30;;;;;;4170524;28;20498;-85
2021/09/26 07:34:26;;;;;;;10.40;9.47;;;19.20;98.30;;;;;;4165114;28;20927;-85
2021/09/26 07:36:30;;;;;;;9.80;8.67;;;19.40;98.30;;;;;;4164781;28;20503;-84
2021/09/26 07:38:33;;;;;;;10.13;9.13;;;19.40;98.30;;;;;;4169399;28;20468;-84
2021/09/26 07:40:36;;;;;;;10.57;8.13;;;19.40;98.30;;;;;;4171897;28;20965;-85
2021/09/26 07:42:39;;;;;;;10.50;9.50;;;19.40;98.30;;;;;;4165110;28;20473;-85
2021/09/26 07:44:42;;;;;;;11.93;10.20;;;19.60;98.30;;;;;;4170033;28;20838;-84
2021/09/26 07:46:46;;;;;;;10.50;9.40;;;19.60;98.30;;;;;;4166911;28;20497;-85
2021/09/26 07:48:49;;;;;;;10.40;9.03;;;19.70;98.30;;;;;;4174127;28;20555;-85
2021/09/26 07:50:52;;;;;;;9.03;8.13;;;19.80;98.30;;;;;;4168386;28;20469;-85
2021/09/26 07:52:56;;;;;;;10.63;9.40;;;19.90;98.30;;;;;;4165832;28;20512;-84
2021/09/26 07:54:59;;;;;;;9.17;8.30;;;20.00;98.30;;;;;;4169819;28;20477;-87
2021/09/26 07:57:03;;;;;;;9.70;7.70;;;20.00;98.30;;;;;;4164887;28;20496;-83
2021/09/26 07:59:05;;;;;;;9.20;8.30;;;20.00;98.30;;;;;;4166094;28;20473;-83
2021/09/26 08:01:08;;;;;;;9.67;8.67;;;20.10;98.30;;;;;;4166494;28;20472;-83
2021/09/26 08:03:12;;;;;;;12.30;8.67;;;20.10;98.30;;;;;;4167227;28;20856;-83
2021/09/26 08:05:15;;;;;;;8.93;7.97;;;20.20;98.30;;;;;;4176188;28;21171;-83
2021/09/26 08:07:18;;;;;;;8.13;7.33;;;20.30;98.30;;;;;;4174325;28;20520;-83
2021/09/26 08:09:22;;;;;;;8.63;7.73;;;20.50;98.30;;;;;;4165953;28;20468;-84
2021/09/26 08:11:25;;;;;;;8.40;7.60;;;20.70;98.30;;;;;;4170084;28;20464;-83
2021/09/26 08:13:28;;;;;;;8.57;7.77;;;20.70;98.30;;;;;;4167155;28;20477;-83
2021/09/26 08:15:31;;;;;;;8.20;6.87;;;20.80;98.30;;;;;;4176938;28;20464;-82
2021/09/26 08:17:37;;;;;;;8.50;7.70;;;20.80;98.30;;;;;;4182030;28;20479;-84
2021/09/26 08:19:42;;;;;;;8.30;7.50;;;20.80;98.30;;;;;;4178096;28;20503;-83
2021/09/26 08:21:45;;;;;;;7.00;6.40;;;20.90;98.30;;;;;;4165829;28;20987;-83
2021/09/26 08:23:48;;;;;;;7.50;6.77;;;21.00;98.30;;;;;;4172215;28;20468;-84
2021/09/26 08:25:55;;;;;;;8.23;7.43;;;21.10;98.30;;;;;;4161775;28;20490;-82
2021/09/26 08:27:58;;;;;;;6.60;6.00;;;21.20;98.30;;;;;;4171359;28;20514;-83
2021/09/26 08:30:06;;;;;;;7.10;6.37;;;21.50;98.30;;;;;;4174089;28;20460;-83
2021/09/26 08:32:08;;;;;;;6.97;6.30;;;21.40;98.30;;;;;;4162990;28;20518;-83
2021/09/26 08:34:20;;;;;;;7.20;6.60;;;21.40;98.30;;;;;;4171163;28;20468;-82
2021/09/26 08:36:23;;;;;;;6.90;5.80;;;21.50;98.30;;;;;;4177904;28;21064;-84
2021/09/26 08:38:26;;;;;;;7.50;6.80;;;21.50;98.30;;;;;;4171163;28;20471;-85
2021/09/26 08:40:30;;;;;;;9.17;7.43;;;21.70;98.30;;;;;;4174305;28;20472;-84
2021/09/26 08:42:40;;;;;;;6.00;5.50;;;21.80;98.30;;;;;;4173780;28;20803;-83
2021/09/26 08:44:48;;;;;;;6.40;5.80;;;22.00;98.30;;;;;;4162620;28;21042;-83
2021/09/26 08:46:53;;;;;;;6.37;5.47;;;22.10;98.30;;;;;;4149838;28;20577;-84
2021/09/26 08:48:58;;;;;;;5.87;5.23;;;22.20;98.30;;;;;;4165030;28;20469;-85
2021/09/26 08:51:14;;;;;;;7.67;6.40;;;22.20;98.30;;;;;;4165573;28;20507;-82
2021/09/26 08:53:25;;;;;;;6.83;6.13;;;22.10;98.30;;;;;;4162005;28;20545;-83
2021/09/26 08:55:32;;;;;;;6.97;6.27;;;22.20;98.30;;;;;;4167186;28;20476;-82
2021/09/26 09:00:14;;;;;;;6.57;5.90;;;22.40;98.30;;;;;;4163094;28;20458;-82
2021/09/26 09:08:40;;;;;;;6.80;5.70;;;22.90;98.30;;;;;;4178504;28;20880;-83
2021/09/26 09:11:02;;;;;;;5.97;5.37;;;22.90;98.30;;;;;;4165963;28;20523;-83
2021/09/26 09:13:10;;;;;;;10.23;9.13;;;23.00;98.30;;;;;;4173706;28;20488;-85
2021/09/26 09:20:14;;;;;;;5.43;5.00;;;23.20;98.30;;;;;;4180161;28;20551;-83
2021/09/26 09:22:37;;;;;;;5.60;4.97;;;23.30;98.30;;;;;;4186310;28;20808;-83
2021/09/26 09:25:15;;;;;;;6.70;5.93;;;23.20;98.30;;;;;;4183729;28;20457;-83
2021/09/26 09:27:19;;;;;;;6.10;5.50;;;23.20;98.30;;;;;;4158927;28;20486;-83
2021/09/26 09:29:27;;;;;;;5.53;4.93;;;23.40;98.30;;;;;;4175892;28;20465;-83
2021/09/26 09:31:36;;;;;;;6.27;5.67;;;23.70;98.30;;;;;;4179035;28;20468;-83
2021/09/26 09:34:12;;;;;;;6.70;5.67;;;23.90;98.30;;;;;;4171725;28;20492;-83
2021/09/26 09:36:29;;;;;;;5.50;5.00;;;24.10;98.30;;;;;;4169208;28;20946;-83
2021/09/26 09:38:48;;;;;;;6.60;5.60;;;24.20;98.30;;;;;;4172029;28;20978;-83
2021/09/26 09:40:53;;;;;;;5.47;4.97;;;24.10;98.30;;;;;;4159268;28;20988;-84
2021/09/26 09:43:05;;;;;;;7.50;6.80;;;24.00;98.30;;;;;;4170699;28;20472;-85
2021/09/26 09:45:31;;;;;;;6.00;5.50;;;24.20;98.30;;;;;;4168125;28;20496;-84
2021/09/26 09:47:56;;;;;;;5.63;5.10;;;24.20;98.30;;;;;;4156053;28;20488;-84
2021/09/26 09:50:00;;;;;;;6.00;5.50;;;24.20;98.30;;;;;;4155318;28;20861;-84
2021/09/26 09:52:04;;;;;;;5.70;5.17;;;24.30;98.30;;;;;;4160117;28;20473;-83
2021/09/26 09:54:08;;;;;;;6.03;5.53;;;24.40;98.30;;;;;;4164479;28;20476;-83
2021/09/26 09:56:17;;;;;;;5.93;5.43;;;24.40;98.30;;;;;;4165762;28;20485;-82
2021/09/26 09:58:20;;;;;;;5.67;5.17;;;24.40;98.30;;;;;;4163158;28;20560;-82
2021/09/26 10:00:25;;;;;;;6.77;5.70;;;24.50;98.30;;;;;;4160754;28;20559;-83
2021/09/26 10:02:41;;;;;;;5.40;4.90;;;24.70;98.30;;;;;;4165864;28;20465;-83
2021/09/26 10:04:48;;;;;;;5.87;5.33;;;24.80;98.30;;;;;;4166054;28;20472;-83
2021/09/26 10:06:51;;;;;;;5.87;5.40;;;24.50;98.30;;;;;;4161217;28;20573;-84
2021/09/26 10:08:56;;;;;;;6.10;5.60;;;24.50;98.30;;;;;;4164677;28;20827;-83
2021/09/26 10:11:06;;;;;;;6.40;5.40;;;24.60;98.30;;;;;;4161309;28;20508;-84
2021/09/26 10:13:10;;;;;;;6.20;5.60;;;24.50;98.30;;;;;;4163510;28;20545;-83
2021/09/26 10:15:14;;;;;;;6.10;5.50;;;24.50;98.30;;;;;;4158924;28;20488;-83
2021/09/26 10:17:19;;;;;;;5.73;5.20;;;24.60;98.30;;;;;;4160566;28;20842;-83
2021/09/26 10:19:24;;;;;;;5.60;5.00;;;24.70;98.30;;;;;;4168886;28;20468;-83
2021/09/26 10:21:29;;;;;;;5.33;4.83;;;24.80;98.30;;;;;;4164337;28;20470;-83
2021/09/26 10:23:33;;;;;;;6.10;5.33;;;25.00;98.30;;;;;;4166776;28;20497;-83
2021/09/26 10:25:36;;;;;;;6.20;5.50;;;25.00;98.20;;;;;;4164257;28;20536;-83
2021/09/26 10:27:39;;;;;;;5.40;5.00;;;25.10;98.30;;;;;;4170026;28;20492;-82
2021/09/26 10:29:48;;;;;;;5.40;4.93;;;25.40;98.30;;;;;;4170477;28;20954;-83
2021/09/26 10:31:52;;;;;;;5.43;4.93;;;25.50;97.20;;;;;;4164515;28;20461;-82
2021/09/26 13:47:48;;;;;;;7.90;7.00;;;24.00;98.30;;;;;;4323582;23;20627;-79
2021/09/26 22:45:53;;;;;;;14.97;13.47;;;19.20;98.30;;;;;;4094558;29;20472;-81
2021/09/26 22:47:56;;;;;;;18.23;16.30;;;19.10;98.30;;;;;;4090790;29;20478;-81
2021/09/26 22:49:59;;;;;;;16.40;14.90;;;19.10;98.30;;;;;;4096017;28;20962;-82
2021/09/26 22:52:03;;;;;;;17.30;15.63;;;19.10;98.30;;;;;;4098491;29;20528;-82
2021/09/26 22:54:06;;;;;;;19.37;17.60;;;19.00;98.30;;;;;;4098576;29;20515;-82
2021/09/26 22:56:09;;;;;;;19.20;17.30;;;19.00;98.30;;;;;;4114150;28;21031;-81
2021/09/26 22:58:14;;;;;;;18.83;16.60;;;19.00;98.30;;;;;;4117371;28;20471;-81
2021/09/26 23:00:20;;;;;;;18.03;16.43;;;19.00;98.30;;;;;;4117876;28;20482;-82
2021/09/26 23:02:26;;;;;;;19.67;17.87;;;19.00;98.30;;;;;;4117758;28;20468;-81
2021/09/26 23:04:29;;;;;;;18.93;17.00;;;18.90;98.30;;;;;;4117335;28;20579;-82
2021/09/26 23:06:32;;;;;;;20.57;17.67;;;18.90;98.30;;;;;;4117436;28;20477;-82
2021/09/26 23:08:35;;;;;;;19.40;17.57;;;18.90;98.30;;;;;;4118039;28;20472;-82
2021/09/26 23:10:39;;;;;;;19.33;17.40;;;18.80;98.30;;;;;;4118047;28;20506;-82